createdAt,value
2017-06-25T00:00:17.440Z,41.37
2017-06-25T00:00:57.910Z,41.2
2017-06-25T00:01:38.375Z,41.27
2017-06-25T00:02:18.843Z,41.27
2017-06-25T00:02:59.313Z,41.27
2017-06-25T00:03:39.752Z,41.17
2017-06-25T00:04:20.211Z,41.08
2017-06-25T00:05:00.660Z,41.37
2017-06-25T00:05:41.120Z,41.37
2017-06-25T00:06:21.577Z,41.17
2017-06-25T00:07:02.038Z,41.17
2017-06-25T00:07:42.490Z,41.37
2017-06-25T00:08:22.943Z,41.17
2017-06-25T00:09:03.407Z,41.17
2017-06-25T00:09:43.873Z,41.17
2017-06-25T00:10:24.332Z,41.27
2017-06-25T00:11:04.792Z,41.25
2017-06-25T00:11:45.244Z,41.25
2017-06-25T00:12:25.695Z,41.25
2017-06-25T00:13:06.166Z,41.25
2017-06-25T00:13:46.630Z,41.16
2017-06-25T00:14:27.107Z,41.25
2017-06-25T00:15:07.561Z,41.25
2017-06-25T00:15:48.018Z,41.17
2017-06-25T00:16:28.478Z,41.16
2017-06-25T00:17:08.950Z,41.16
2017-06-25T00:17:49.397Z,41.16
2017-06-25T00:18:29.860Z,41.35
2017-06-25T00:19:10.313Z,41.37
2017-06-25T00:19:50.774Z,41.08
2017-06-25T00:20:31.239Z,41.17
2017-06-25T00:21:11.700Z,41.37
2017-06-25T00:21:52.162Z,41.27
2017-06-25T00:22:32.632Z,41.37
2017-06-25T00:23:13.106Z,41.27
2017-06-25T00:23:53.550Z,41.35
2017-06-25T00:24:34.012Z,41.35
2017-06-25T00:25:14.464Z,41.27
2017-06-25T00:25:54.923Z,41.47
2017-06-25T00:26:35.371Z,41.47
2017-06-25T00:27:15.852Z,41.45
2017-06-25T00:27:56.305Z,41.47
2017-06-25T00:28:36.761Z,41.16
2017-06-25T00:29:17.232Z,41.37
2017-06-25T00:29:57.704Z,41.47
2017-06-25T00:30:38.164Z,41.25
2017-06-25T00:31:18.613Z,41.45
2017-06-25T00:31:59.074Z,41.16
2017-06-25T00:32:39.533Z,41.45
2017-06-25T00:33:20.013Z,41.35
2017-06-25T00:34:00.506Z,41.37
2017-06-25T00:34:40.963Z,41.45
2017-06-25T00:35:21.421Z,41.25
2017-06-25T00:36:01.979Z,41.17
2017-06-25T00:36:42.455Z,41.16
2017-06-25T00:37:22.908Z,41.17
2017-06-25T00:38:03.357Z,41.25
2017-06-25T00:38:43.818Z,41.27
2017-06-25T00:39:24.277Z,41.35
2017-06-25T00:40:04.753Z,41.45
2017-06-25T00:40:45.216Z,41.25
2017-06-25T00:41:25.671Z,41.25
2017-06-25T00:42:06.125Z,41.35
2017-06-25T00:42:46.593Z,41.25
2017-06-25T00:43:27.050Z,41.45
2017-06-25T00:44:07.504Z,41.45
2017-06-25T00:44:47.963Z,41.25
2017-06-25T00:45:28.405Z,41.35
2017-06-25T00:46:08.841Z,41.25
2017-06-25T00:46:49.298Z,41.25
2017-06-25T00:47:29.765Z,41.25
2017-06-25T00:48:10.222Z,41.35
2017-06-25T00:48:50.686Z,41.45
2017-06-25T00:49:31.130Z,41.25
2017-06-25T00:50:11.585Z,41.25
2017-06-25T00:50:52.070Z,41.25
2017-06-25T00:51:32.530Z,41.45
2017-06-25T00:52:12.988Z,41.25
2017-06-25T00:52:53.433Z,41.45
2017-06-25T00:53:33.905Z,41.45
2017-06-25T00:54:14.365Z,41.45
2017-06-25T00:54:54.819Z,41.25
2017-06-25T00:55:35.278Z,41.35
2017-06-25T00:56:15.743Z,41.35
2017-06-25T00:56:56.212Z,41.25
2017-06-25T00:57:36.672Z,41.35
2017-06-25T00:58:17.123Z,41.25
2017-06-25T00:58:57.593Z,41.16
2017-06-25T00:59:38.044Z,41.14
2017-06-25T01:00:18.505Z,41.25
2017-06-25T01:00:58.965Z,41.16
2017-06-25T01:01:39.427Z,41.14
2017-06-25T01:02:19.885Z,41.25
2017-06-25T01:03:00.342Z,41.16
2017-06-25T01:03:40.798Z,41.04
2017-06-25T01:04:21.256Z,41.14
2017-06-25T01:05:01.714Z,41.04
2017-06-25T01:05:42.217Z,41.16
2017-06-25T01:06:22.655Z,41.14
2017-06-25T01:07:03.122Z,41.25
2017-06-25T01:07:43.579Z,41.24
2017-06-25T01:08:24.040Z,41.16
2017-06-25T01:09:04.496Z,41.06
2017-06-25T01:09:44.958Z,41.14
2017-06-25T01:10:25.417Z,41.16
2017-06-25T01:11:05.873Z,41.24
2017-06-25T01:11:46.333Z,41.24
2017-06-25T01:12:26.788Z,41.16
2017-06-25T01:13:07.247Z,41.16
2017-06-25T01:13:47.703Z,41.35
2017-06-25T01:14:28.158Z,41.25
2017-06-25T01:15:08.607Z,41.35
2017-06-25T01:15:49.066Z,41.35
2017-06-25T01:16:29.524Z,41.35
2017-06-25T01:17:09.980Z,41.25
2017-06-25T01:17:50.440Z,41.25
2017-06-25T01:18:30.902Z,41.33
2017-06-25T01:19:11.365Z,41.25
2017-06-25T01:19:51.833Z,41.16
2017-06-25T01:20:32.288Z,41.25
2017-06-25T01:21:12.743Z,41.16
2017-06-25T01:21:53.204Z,41.16
2017-06-25T01:22:33.659Z,41.35
2017-06-25T01:23:14.117Z,41.33
2017-06-25T01:23:54.564Z,41.25
2017-06-25T01:24:35.014Z,41.24
2017-06-25T01:25:15.475Z,41.45
2017-06-25T01:25:55.943Z,41.42
2017-06-25T01:26:36.393Z,41.42
2017-06-25T01:27:16.862Z,41.33
2017-06-25T01:27:57.325Z,41.35
2017-06-25T01:28:37.784Z,41.52
2017-06-25T01:29:18.243Z,41.33
2017-06-25T01:29:58.703Z,41.33
2017-06-25T01:30:39.167Z,41.52
2017-06-25T01:31:19.631Z,41.45
2017-06-25T01:32:00.089Z,41.45
2017-06-25T01:32:40.549Z,41.42
2017-06-25T01:33:21.002Z,41.42
2017-06-25T01:34:01.463Z,41.45
2017-06-25T01:34:41.923Z,41.55
2017-06-25T01:35:22.379Z,41.52
2017-06-25T01:36:02.849Z,41.55
2017-06-25T01:36:43.290Z,41.06
2017-06-25T01:37:23.746Z,41.42
2017-06-25T01:38:04.204Z,41.42
2017-06-25T01:38:44.661Z,41.16
2017-06-25T01:39:25.126Z,41.16
2017-06-25T01:40:05.585Z,41.33
2017-06-25T01:40:46.043Z,41.33
2017-06-25T01:41:26.507Z,41.35
2017-06-25T01:42:06.965Z,41.16
2017-06-25T01:42:47.417Z,41.33
2017-06-25T01:43:27.882Z,41.35
2017-06-25T01:44:08.341Z,41.16
2017-06-25T01:44:48.807Z,41.62
2017-06-25T01:45:29.263Z,41.55
2017-06-25T01:46:09.725Z,41.45
2017-06-25T01:46:50.190Z,41.64
2017-06-25T01:47:30.649Z,41.52
2017-06-25T01:48:11.108Z,41.93
2017-06-25T01:48:51.578Z,41.91
2017-06-25T01:49:32.032Z,41.52
2017-06-25T01:50:12.496Z,41.42
2017-06-25T01:50:52.959Z,41.74
2017-06-25T01:51:33.417Z,41.82
2017-06-25T01:52:13.895Z,41.74
2017-06-25T01:52:55.019Z,41.52
2017-06-25T01:53:35.480Z,41.42
2017-06-25T01:54:15.931Z,41.62
2017-06-25T01:54:56.387Z,41.52
2017-06-25T01:55:36.851Z,41.42
2017-06-25T01:56:17.310Z,41.52
2017-06-25T01:56:57.757Z,41.42
2017-06-25T01:57:38.215Z,41.52
2017-06-25T01:58:18.681Z,41.72
2017-06-25T01:58:59.144Z,41.62
2017-06-25T01:59:39.602Z,41.72
2017-06-25T02:00:20.054Z,41.82
2017-06-25T02:01:00.511Z,41.82
2017-06-25T02:02:58.384Z,41.91
2017-06-25T02:03:38.850Z,42.1
2017-06-25T02:04:19.307Z,42
2017-06-25T02:04:59.754Z,42
2017-06-25T02:05:40.216Z,42
2017-06-25T02:06:20.663Z,42
2017-06-25T02:07:01.118Z,42.3
2017-06-25T02:07:41.575Z,42.18
2017-06-25T02:08:22.037Z,42.2
2017-06-25T02:09:02.493Z,42.49
2017-06-25T02:09:42.955Z,42.37
2017-06-25T02:10:23.416Z,42.2
2017-06-25T02:11:03.882Z,42
2017-06-25T02:11:44.323Z,42.4
2017-06-25T02:12:24.778Z,42.3
2017-06-25T02:13:05.224Z,42.3
2017-06-25T02:13:45.683Z,42.3
2017-06-25T02:14:26.141Z,42
2017-06-25T02:15:06.630Z,42.3
2017-06-25T02:15:47.103Z,42.3
2017-06-25T02:16:27.559Z,42.1
2017-06-25T02:17:08.015Z,42.3
2017-06-25T02:17:48.475Z,42.2
2017-06-25T02:18:28.928Z,42.1
2017-06-25T02:19:09.404Z,42.2
2017-06-25T02:19:49.870Z,42.1
2017-06-25T02:20:30.335Z,42.2
2017-06-25T02:21:10.785Z,42.4
2017-06-25T02:21:51.245Z,42.2
2017-06-25T02:22:31.703Z,42.3
2017-06-25T02:23:12.159Z,42.2
2017-06-25T02:23:52.613Z,42.2
2017-06-25T02:24:33.073Z,42.1
2017-06-25T02:25:13.524Z,42.1
2017-06-25T02:25:53.987Z,42.1
2017-06-25T02:26:34.444Z,42.2
2017-06-25T02:27:14.893Z,42.2
2017-06-25T02:27:55.351Z,42.1
2017-06-25T02:28:35.804Z,42.2
2017-06-25T02:29:16.269Z,42.1
2017-06-25T02:29:56.744Z,42.2
2017-06-25T02:30:37.183Z,42.2
2017-06-25T02:31:17.640Z,42.1
2017-06-25T02:31:58.098Z,42.1
2017-06-25T02:32:38.560Z,42.2
2017-06-25T02:33:19.026Z,42.1
2017-06-25T02:33:59.523Z,42.2
2017-06-25T02:34:39.982Z,42.59
2017-06-25T02:35:20.439Z,42.2
2017-06-25T02:36:00.892Z,42.49
2017-06-25T02:36:41.333Z,42.49
2017-06-25T02:37:21.791Z,42.59
2017-06-25T02:38:02.249Z,42.49
2017-06-25T02:38:42.718Z,42.3
2017-06-25T02:40:35.365Z,42.49
2017-06-25T02:41:15.824Z,42.68
2017-06-25T02:41:56.281Z,42.59
2017-06-25T02:42:36.731Z,42.68
2017-06-25T02:43:17.185Z,42.59
2017-06-25T02:43:57.638Z,42.4
2017-06-25T02:44:38.083Z,42.2
2017-06-25T02:45:18.573Z,42.68
2017-06-25T02:45:59.013Z,42.68
2017-06-25T02:46:39.468Z,42.4
2017-06-25T02:47:19.927Z,42.59
2017-06-25T02:48:00.410Z,42.4
2017-06-25T02:48:40.856Z,42.4
2017-06-25T02:49:21.307Z,42.1
2017-06-25T02:50:01.758Z,42.1
2017-06-25T02:50:42.217Z,42.2
2017-06-25T02:51:22.667Z,42.59
2017-06-25T02:52:03.123Z,42.1
2017-06-25T02:52:43.571Z,42.3
2017-06-25T02:53:24.057Z,42.59
2017-06-25T02:54:04.520Z,42.1
2017-06-25T02:54:44.969Z,42.59
2017-06-25T02:55:25.427Z,42.59
2017-06-25T02:56:05.890Z,42.49
2017-06-25T02:56:46.340Z,42.3
2017-06-25T02:57:26.794Z,42.49
2017-06-25T02:58:07.249Z,42.59
2017-06-25T02:58:47.704Z,42.59
2017-06-25T02:59:28.167Z,42.3
2017-06-25T03:00:08.612Z,42.1
2017-06-25T03:00:49.082Z,42.1
2017-06-25T03:01:29.534Z,42.1
2017-06-25T03:02:09.999Z,42.2
2017-06-25T03:02:50.463Z,42.2
2017-06-25T03:03:30.921Z,42.3
2017-06-25T03:04:11.384Z,42.49
2017-06-25T03:04:51.834Z,42.49
2017-06-25T03:05:32.298Z,42.49
2017-06-25T03:06:12.742Z,42.59
2017-06-25T03:06:53.199Z,42.49
2017-06-25T03:07:33.648Z,42.49
2017-06-25T03:08:14.108Z,42.68
2017-06-25T03:08:54.560Z,42.59
2017-06-25T03:09:35.021Z,42.78
2017-06-25T03:10:15.467Z,42.88
2017-06-25T03:10:55.942Z,42.88
2017-06-25T03:11:36.396Z,42.88
2017-06-25T03:12:16.853Z,42.88
2017-06-25T03:12:57.306Z,42.59
2017-06-25T03:13:37.761Z,42.78
2017-06-25T03:14:18.220Z,42.68
2017-06-25T03:14:58.666Z,42.71
2017-06-25T03:15:39.095Z,42.78
2017-06-25T03:16:19.561Z,42.97
2017-06-25T03:17:00.013Z,42.59
2017-06-25T03:17:40.465Z,43.17
2017-06-25T03:18:20.915Z,43.07
2017-06-25T03:19:01.362Z,43.07
2017-06-25T03:19:41.825Z,43.07
2017-06-25T03:20:22.281Z,43.17
2017-06-25T03:21:02.761Z,43.07
2017-06-25T03:21:43.212Z,43.07
2017-06-25T03:22:23.669Z,42.97
2017-06-25T03:23:04.121Z,42.97
2017-06-25T03:23:44.580Z,43.07
2017-06-25T03:24:25.026Z,43.07
2017-06-25T03:25:05.490Z,42.97
2017-06-25T03:25:45.938Z,42.88
2017-06-25T03:26:26.395Z,43.15
2017-06-25T03:27:06.850Z,42.96
2017-06-25T03:27:47.289Z,43.15
2017-06-25T03:28:27.739Z,43.15
2017-06-25T03:29:08.188Z,43.24
2017-06-25T03:29:48.646Z,43.24
2017-06-25T03:30:29.103Z,42.66
2017-06-25T03:31:09.566Z,43.15
2017-06-25T03:31:50.018Z,43.24
2017-06-25T03:32:30.480Z,43.24
2017-06-25T03:33:10.941Z,43.05
2017-06-25T03:33:51.397Z,43.15
2017-06-25T03:34:31.870Z,42.96
2017-06-25T03:35:12.305Z,42.86
2017-06-25T03:35:52.766Z,43.05
2017-06-25T03:36:33.221Z,42.96
2017-06-25T03:37:13.680Z,42.86
2017-06-25T03:37:54.137Z,42.96
2017-06-25T03:38:34.619Z,42.96
2017-06-25T03:39:15.062Z,42.96
2017-06-25T03:39:55.518Z,42.96
2017-06-25T03:40:35.977Z,42.96
2017-06-25T03:41:16.429Z,42.96
2017-06-25T03:41:56.883Z,42.96
2017-06-25T03:42:37.342Z,42.96
2017-06-25T03:43:17.786Z,42.76
2017-06-25T03:43:58.243Z,43.15
2017-06-25T03:44:38.696Z,42.86
2017-06-25T03:45:19.154Z,43.15
2017-06-25T03:45:59.609Z,43.15
2017-06-25T03:46:40.073Z,43.05
2017-06-25T03:47:20.538Z,43.05
2017-06-25T03:48:00.998Z,42.96
2017-06-25T03:48:41.458Z,43.15
2017-06-25T03:49:21.919Z,43.05
2017-06-25T03:50:02.374Z,42.96
2017-06-25T03:50:42.829Z,43.15
2017-06-25T03:51:23.287Z,42.96
2017-06-25T03:52:03.742Z,42.97
2017-06-25T03:52:44.192Z,42.86
2017-06-25T03:53:24.648Z,42.96
2017-06-25T03:54:05.108Z,42.97
2017-06-25T03:54:45.567Z,42.97
2017-06-25T03:55:26.023Z,42.97
2017-06-25T03:56:06.480Z,43.15
2017-06-25T03:56:46.937Z,43.17
2017-06-25T03:57:27.396Z,43.17
2017-06-25T03:58:07.855Z,43.17
2017-06-25T03:58:48.309Z,43.17
2017-06-25T03:59:28.757Z,43.17
2017-06-25T04:00:09.220Z,43.27
2017-06-25T04:00:49.677Z,43.17
2017-06-25T04:01:30.126Z,43.46
2017-06-25T04:02:10.583Z,43.55
2017-06-25T04:02:51.033Z,43.46
2017-06-25T04:03:31.487Z,43.54
2017-06-25T04:04:11.956Z,43.34
2017-06-25T04:04:52.413Z,43.44
2017-06-25T04:05:32.868Z,43.24
2017-06-25T04:06:13.316Z,43.34
2017-06-25T04:06:53.768Z,43.34
2017-06-25T04:07:34.298Z,43.24
2017-06-25T04:08:14.758Z,43.44
2017-06-25T04:08:55.209Z,43.24
2017-06-25T04:09:35.674Z,43.24
2017-06-25T04:10:16.128Z,43.24
2017-06-25T04:10:56.576Z,43.34
2017-06-25T04:11:37.029Z,43.17
2017-06-25T04:12:17.492Z,43.24
2017-06-25T04:12:57.955Z,43.24
2017-06-25T04:13:38.410Z,43.24
2017-06-25T04:14:18.860Z,43.24
2017-06-25T04:14:59.332Z,43.24
2017-06-25T04:15:39.787Z,43.54
2017-06-25T04:16:20.249Z,43.27
2017-06-25T04:17:00.711Z,43.24
2017-06-25T04:17:41.154Z,43.15
2017-06-25T04:18:21.612Z,43.27
2017-06-25T04:19:02.077Z,43.34
2017-06-25T04:19:42.529Z,43.17
2017-06-25T04:20:22.983Z,43.27
2017-06-25T04:21:03.425Z,43.27
2017-06-25T04:21:43.878Z,43.27
2017-06-25T04:22:24.341Z,43.17
2017-06-25T04:23:04.796Z,43.27
2017-06-25T04:23:45.254Z,43.27
2017-06-25T04:24:25.719Z,43.17
2017-06-25T04:25:06.183Z,43.17
2017-06-25T04:25:46.641Z,43.27
2017-06-25T04:26:27.094Z,43.27
2017-06-25T04:27:07.538Z,43.17
2017-06-25T04:27:47.999Z,43.46
2017-06-25T04:28:28.454Z,43.37
2017-06-25T04:29:08.913Z,43.37
2017-06-25T04:29:49.372Z,43.37
2017-06-25T04:30:29.828Z,43.37
2017-06-25T04:31:10.290Z,43.46
2017-06-25T04:31:50.748Z,43.37
2017-06-25T04:32:31.203Z,43.27
2017-06-25T04:33:11.651Z,43.27
2017-06-25T04:33:52.110Z,43.55
2017-06-25T04:34:32.558Z,43.37
2017-06-25T04:35:13.007Z,43.46
2017-06-25T04:35:53.462Z,43.37
2017-06-25T04:36:33.938Z,43.55
2017-06-25T04:37:14.382Z,43.75
2017-06-25T04:37:54.834Z,43.27
2017-06-25T04:38:35.293Z,43.46
2017-06-25T04:39:15.757Z,43.75
2017-06-25T04:39:56.213Z,43.46
2017-06-25T04:40:36.673Z,43.55
2017-06-25T04:41:17.128Z,43.75
2017-06-25T04:41:57.592Z,43.85
2017-06-25T04:42:38.036Z,43.55
2017-06-25T04:43:18.495Z,43.75
2017-06-25T04:43:58.958Z,43.85
2017-06-25T04:44:39.429Z,43.27
2017-06-25T04:45:19.884Z,43.85
2017-06-25T04:46:00.343Z,43.85
2017-06-25T04:46:40.798Z,43.85
2017-06-25T04:47:21.252Z,43.75
2017-06-25T04:48:01.716Z,43.85
2017-06-25T04:48:42.177Z,43.55
2017-06-25T04:49:22.630Z,43.85
2017-06-25T04:50:03.086Z,43.85
2017-06-25T04:50:43.549Z,43.75
2017-06-25T04:51:24.004Z,43.37
2017-06-25T04:52:04.463Z,44.23
2017-06-25T04:52:44.930Z,43.27
2017-06-25T04:53:25.387Z,44.04
2017-06-25T04:54:05.843Z,44.04
2017-06-25T04:54:46.299Z,44.13
2017-06-25T04:55:26.758Z,43.65
2017-06-25T04:56:07.212Z,43.75
2017-06-25T04:56:47.662Z,44.04
2017-06-25T04:57:28.122Z,44.04
2017-06-25T04:58:08.580Z,43.95
2017-06-25T04:58:49.038Z,44.13
2017-06-25T04:59:29.493Z,43.95
2017-06-25T05:00:09.946Z,43.95
2017-06-25T05:00:50.400Z,43.95
2017-06-25T05:01:30.860Z,43.95
2017-06-25T05:02:11.315Z,43.75
2017-06-25T05:02:51.767Z,43.82
2017-06-25T05:03:32.223Z,43.73
2017-06-25T05:04:12.685Z,43.73
2017-06-25T05:04:53.136Z,44.31
2017-06-25T05:05:33.586Z,44.31
2017-06-25T05:06:14.069Z,43.92
2017-06-25T05:06:54.490Z,43.82
2017-06-25T05:07:34.951Z,43.82
2017-06-25T05:08:15.402Z,43.73
2017-06-25T05:08:55.859Z,44.02
2017-06-25T05:09:36.317Z,43.82
2017-06-25T05:10:16.787Z,44.21
2017-06-25T05:10:57.244Z,43.82
2017-06-25T05:11:37.706Z,44.02
2017-06-25T05:12:18.165Z,44.12
2017-06-25T05:13:00.535Z,44.02
2017-06-25T05:13:40.993Z,44.02
2017-06-25T05:14:21.457Z,43.92
2017-06-25T05:15:01.915Z,43.73
2017-06-25T05:15:42.354Z,43.73
2017-06-25T05:16:22.811Z,43.92
2017-06-25T05:17:03.255Z,43.82
2017-06-25T05:17:43.715Z,43.82
2017-06-25T05:18:24.173Z,43.82
2017-06-25T05:19:04.628Z,44.12
2017-06-25T05:19:45.122Z,44.12
2017-06-25T05:20:25.535Z,44.04
2017-06-25T05:21:05.995Z,43.92
2017-06-25T05:21:46.449Z,44.13
2017-06-25T05:22:26.904Z,44.04
2017-06-25T05:23:07.379Z,44.02
2017-06-25T05:23:47.838Z,43.73
2017-06-25T05:24:28.300Z,44.21
2017-06-25T05:25:08.764Z,43.82
2017-06-25T05:25:49.220Z,43.82
2017-06-25T05:26:29.680Z,44.02
2017-06-25T05:27:10.139Z,44.02
2017-06-25T05:27:50.597Z,44.31
2017-06-25T05:28:31.355Z,44.4
2017-06-25T05:29:11.816Z,44.31
2017-06-25T05:29:52.270Z,44.31
2017-06-25T05:30:32.723Z,44.12
2017-06-25T05:31:13.190Z,44.02
2017-06-25T05:31:53.640Z,44.21
2017-06-25T05:32:34.120Z,44.79
2017-06-25T05:33:14.576Z,44.79
2017-06-25T05:33:55.038Z,44.5
2017-06-25T05:34:35.498Z,44.57
2017-06-25T05:35:15.958Z,44.7
2017-06-25T05:35:56.409Z,44.38
2017-06-25T05:36:37.234Z,44.29
2017-06-25T05:37:17.716Z,44.57
2017-06-25T05:37:58.165Z,44.31
2017-06-25T05:38:38.615Z,44.67
2017-06-25T05:39:19.067Z,44.38
2017-06-25T05:39:59.523Z,44.38
2017-06-25T05:40:39.981Z,44.57
2017-06-25T05:41:20.442Z,44.67
2017-06-25T05:42:00.902Z,44.96
2017-06-25T05:42:41.353Z,44.87
2017-06-25T05:43:21.807Z,44.96
2017-06-25T05:44:02.261Z,44.87
2017-06-25T05:44:42.718Z,44.87
2017-06-25T05:45:23.176Z,44.87
2017-06-25T05:46:03.634Z,44.96
2017-06-25T05:46:44.112Z,44.87
2017-06-25T05:47:24.583Z,44.87
2017-06-25T05:48:05.046Z,44.67
2017-06-25T05:48:45.503Z,44.67
2017-06-25T05:49:25.955Z,44.48
2017-06-25T05:50:06.417Z,44.48
2017-06-25T05:50:46.869Z,44.57
2017-06-25T05:51:27.331Z,44.67
2017-06-25T05:52:07.780Z,44.67
2017-06-25T05:52:48.238Z,44.48
2017-06-25T05:53:28.694Z,44.87
2017-06-25T05:54:09.160Z,44.57
2017-06-25T05:54:49.614Z,44.67
2017-06-25T05:55:30.076Z,44.57
2017-06-25T05:56:10.526Z,44.48
2017-06-25T05:56:50.983Z,44.67
2017-06-25T05:57:31.443Z,44.96
2017-06-25T05:58:11.911Z,44.48
2017-06-25T05:58:52.349Z,44.87
2017-06-25T05:59:32.802Z,44.77
2017-06-25T06:00:13.255Z,44.87
2017-06-25T06:00:53.705Z,44.89
2017-06-25T06:01:34.174Z,44.98
2017-06-25T06:02:14.631Z,45.18
2017-06-25T06:02:55.103Z,45.08
2017-06-25T06:03:35.559Z,44.79
2017-06-25T06:04:16.025Z,44.87
2017-06-25T06:04:56.476Z,44.87
2017-06-25T06:05:36.930Z,44.87
2017-06-25T06:06:17.389Z,44.77
2017-06-25T06:06:57.843Z,44.67
2017-06-25T06:07:38.308Z,44.67
2017-06-25T06:08:18.778Z,44.77
2017-06-25T06:08:59.237Z,44.38
2017-06-25T06:09:39.700Z,44.5
2017-06-25T06:10:20.151Z,44.67
2017-06-25T06:11:00.610Z,44.67
2017-06-25T06:11:41.055Z,44.7
2017-06-25T06:12:21.497Z,44.6
2017-06-25T06:13:01.955Z,44.7
2017-06-25T06:13:42.414Z,44.5
2017-06-25T06:14:22.854Z,44.87
2017-06-25T06:15:03.325Z,44.98
2017-06-25T06:15:43.768Z,45.06
2017-06-25T06:16:24.230Z,45.06
2017-06-25T06:17:04.676Z,45.06
2017-06-25T06:17:45.154Z,44.96
2017-06-25T06:18:25.611Z,45.06
2017-06-25T06:19:06.075Z,45.16
2017-06-25T06:19:46.530Z,45.06
2017-06-25T06:20:26.985Z,44.87
2017-06-25T06:21:07.446Z,45.06
2017-06-25T06:21:47.897Z,45.06
2017-06-25T06:22:28.345Z,45.06
2017-06-25T06:23:08.803Z,44.96
2017-06-25T06:23:49.267Z,45.25
2017-06-25T06:24:29.726Z,44.67
2017-06-25T06:25:10.240Z,45.06
2017-06-25T06:25:50.678Z,45.06
2017-06-25T06:26:31.146Z,45.06
2017-06-25T06:27:11.602Z,44.87
2017-06-25T06:27:52.047Z,45.06
2017-06-25T06:28:32.491Z,45.25
2017-06-25T06:29:12.988Z,45.25
2017-06-25T06:29:53.442Z,45.06
2017-06-25T06:30:33.908Z,45.06
2017-06-25T06:31:14.381Z,45.14
2017-06-25T06:31:54.834Z,45.06
2017-06-25T06:32:35.353Z,45.06
2017-06-25T06:33:15.812Z,44.87
2017-06-25T06:33:56.267Z,45.23
2017-06-25T06:34:36.716Z,45.42
2017-06-25T06:35:17.171Z,45.25
2017-06-25T06:35:57.621Z,45.23
2017-06-25T06:36:38.061Z,45.42
2017-06-25T06:37:18.509Z,45.23
2017-06-25T06:37:58.966Z,45.33
2017-06-25T06:38:39.412Z,45.52
2017-06-25T06:39:19.847Z,45.33
2017-06-25T06:40:00.297Z,45.25
2017-06-25T06:40:40.751Z,45.52
2017-06-25T06:41:21.212Z,45.42
2017-06-25T06:42:01.672Z,45.35
2017-06-25T06:42:42.139Z,45.04
2017-06-25T06:43:22.594Z,45.06
2017-06-25T06:44:03.050Z,45.16
2017-06-25T06:44:43.514Z,45.25
2017-06-25T06:45:23.965Z,45.06
2017-06-25T06:46:04.420Z,45.06
2017-06-25T06:46:44.881Z,44.96
2017-06-25T06:47:25.333Z,45.16
2017-06-25T06:48:05.801Z,44.96
2017-06-25T06:48:46.254Z,45.06
2017-06-25T06:49:26.712Z,44.96
2017-06-25T06:50:07.182Z,45.06
2017-06-25T06:50:47.646Z,45.06
2017-06-25T06:51:28.099Z,45.06
2017-06-25T06:52:08.552Z,45.16
2017-06-25T06:52:49.065Z,44.96
2017-06-25T06:53:29.529Z,44.96
2017-06-25T06:54:09.991Z,45.06
2017-06-25T06:54:50.457Z,45.06
2017-06-25T06:55:30.932Z,45.06
2017-06-25T06:56:11.380Z,44.96
2017-06-25T06:56:51.820Z,45.06
2017-06-25T06:57:32.274Z,45.06
2017-06-25T06:58:12.729Z,45.06
2017-06-25T06:58:53.190Z,44.96
2017-06-25T06:59:33.672Z,45.06
2017-06-25T07:00:14.138Z,45.16
2017-06-25T07:00:54.577Z,44.96
2017-06-25T07:01:35.053Z,44.87
2017-06-25T07:02:15.550Z,45.16
2017-06-25T07:02:56.003Z,45.06
2017-06-25T07:03:36.456Z,45.06
2017-06-25T07:04:16.911Z,45.08
2017-06-25T07:04:57.369Z,45.08
2017-06-25T07:05:37.822Z,45.08
2017-06-25T07:06:18.286Z,45.06
2017-06-25T07:06:58.743Z,45.08
2017-06-25T07:07:39.202Z,45.08
2017-06-25T07:08:19.664Z,44.79
2017-06-25T07:09:00.161Z,44.89
2017-06-25T07:09:40.590Z,44.89
2017-06-25T07:10:21.034Z,44.89
2017-06-25T07:11:01.494Z,44.98
2017-06-25T07:11:41.951Z,44.98
2017-06-25T07:12:22.411Z,45.08
2017-06-25T07:13:02.874Z,45.18
2017-06-25T07:13:43.323Z,45.18
2017-06-25T07:14:23.793Z,44.96
2017-06-25T07:15:04.245Z,45.35
2017-06-25T07:15:45.071Z,45.18
2017-06-25T07:16:25.900Z,45.25
2017-06-25T07:17:06.673Z,45.16
2017-06-25T07:17:47.131Z,44.77
2017-06-25T07:18:27.582Z,45.06
2017-06-25T07:19:08.039Z,44.96
2017-06-25T07:19:48.487Z,45.06
2017-06-25T07:20:28.964Z,45.35
2017-06-25T07:21:09.424Z,45.35
2017-06-25T07:21:49.872Z,45.45
2017-06-25T07:22:30.329Z,45.16
2017-06-25T07:23:10.788Z,44.96
2017-06-25T07:23:51.247Z,45.28
2017-06-25T07:24:31.706Z,45.35
2017-06-25T07:25:12.162Z,45.08
2017-06-25T07:25:52.621Z,44.98
2017-06-25T07:26:33.082Z,44.7
2017-06-25T07:27:13.548Z,44.89
2017-06-25T07:27:54.009Z,44.98
2017-06-25T07:28:34.465Z,45.08
2017-06-25T07:29:14.923Z,44.98
2017-06-25T07:29:55.385Z,45.08
2017-06-25T07:30:35.842Z,44.79
2017-06-25T07:31:16.305Z,44.89
2017-06-25T07:31:56.769Z,44.89
2017-06-25T07:32:37.216Z,45.06
2017-06-25T07:33:17.679Z,45.25
2017-06-25T07:33:58.128Z,44.89
2017-06-25T07:34:38.595Z,44.98
2017-06-25T07:35:19.053Z,44.79
2017-06-25T07:35:59.510Z,44.98
2017-06-25T07:36:39.960Z,45.18
2017-06-25T07:37:20.415Z,44.98
2017-06-25T07:38:00.885Z,44.98
2017-06-25T07:38:41.345Z,45.18
2017-06-25T07:39:21.827Z,45.37
2017-06-25T07:40:02.275Z,44.89
2017-06-25T07:40:42.744Z,45.18
2017-06-25T07:41:23.243Z,44.6
2017-06-25T07:42:03.723Z,44.6
2017-06-25T07:42:44.182Z,44.7
2017-06-25T07:43:24.678Z,44.7
2017-06-25T07:44:05.130Z,44.89
2017-06-25T07:44:45.836Z,44.89
2017-06-25T07:45:26.048Z,44.98
2017-06-25T07:46:06.559Z,44.89
2017-06-25T07:46:47.004Z,44.89
2017-06-25T07:47:27.501Z,44.98
2017-06-25T07:48:07.973Z,44.89
2017-06-25T07:48:48.423Z,44.89
2017-06-25T07:49:28.881Z,44.89
2017-06-25T07:50:09.362Z,44.81
2017-06-25T07:50:49.810Z,44.62
2017-06-25T07:51:30.260Z,44.33
2017-06-25T07:52:10.713Z,44.33
2017-06-25T07:52:51.169Z,44.13
2017-06-25T07:53:31.644Z,44.62
2017-06-25T07:54:12.162Z,44.81
2017-06-25T07:54:52.629Z,44.13
2017-06-25T07:55:33.099Z,44.13
2017-06-25T07:56:13.537Z,44.13
2017-06-25T07:56:53.997Z,44.13
2017-06-25T07:57:34.480Z,44.33
2017-06-25T07:58:14.940Z,44.04
2017-06-25T07:58:55.394Z,44.23
2017-06-25T07:59:35.863Z,43.68
2017-06-25T08:00:16.320Z,43.87
2017-06-25T08:00:56.787Z,43.85
2017-06-25T08:01:37.248Z,43.77
2017-06-25T08:02:17.704Z,43.87
2017-06-25T08:02:58.159Z,43.87
2017-06-25T08:03:38.618Z,43.87
2017-06-25T08:04:19.096Z,44.06
2017-06-25T08:04:59.549Z,43.87
2017-06-25T08:05:40.004Z,43.96
2017-06-25T08:06:20.456Z,44.06
2017-06-25T08:07:00.964Z,43.96
2017-06-25T08:07:41.437Z,44.06
2017-06-25T08:08:21.893Z,44.06
2017-06-25T08:09:02.350Z,44.06
2017-06-25T08:09:42.818Z,43.96
2017-06-25T08:10:23.281Z,43.87
2017-06-25T08:11:03.738Z,44.16
2017-06-25T08:11:44.198Z,44.06
2017-06-25T08:12:24.654Z,43.87
2017-06-25T08:13:05.101Z,44.16
2017-06-25T08:15:23.820Z,44.06
2017-06-25T08:16:04.291Z,43.58
2017-06-25T08:16:44.737Z,43.77
2017-06-25T08:17:25.184Z,43.77
2017-06-25T08:18:05.667Z,43.87
2017-06-25T08:18:46.100Z,43.77
2017-06-25T08:20:38.708Z,43.87
2017-06-25T08:21:19.162Z,43.79
2017-06-25T08:21:59.618Z,44.09
2017-06-25T08:22:40.088Z,44.06
2017-06-25T08:23:20.586Z,43.6
2017-06-25T08:24:00.994Z,43.5
2017-06-25T08:24:41.463Z,43.5
2017-06-25T08:25:21.878Z,43.5
2017-06-25T08:26:02.341Z,43.21
2017-06-25T08:26:42.787Z,43.31
2017-06-25T08:27:23.238Z,43.41
2017-06-25T08:28:03.692Z,43.21
2017-06-25T08:28:44.144Z,43.41
2017-06-25T08:29:24.622Z,43.02
2017-06-25T08:30:05.094Z,43.31
2017-06-25T08:30:45.526Z,43.41
2017-06-25T08:31:25.983Z,43.5
2017-06-25T08:32:06.442Z,43.41
2017-06-25T08:32:46.900Z,43.21
2017-06-25T08:33:27.353Z,43.21
2017-06-25T08:34:07.795Z,43.12
2017-06-25T08:34:48.258Z,43.13
2017-06-25T08:35:28.692Z,43.12
2017-06-25T08:36:09.118Z,43.02
2017-06-25T08:36:49.575Z,43.12
2017-06-25T08:37:30.042Z,43.13
2017-06-25T08:38:10.475Z,43.13
2017-06-25T08:38:50.932Z,42.92
2017-06-25T08:39:31.366Z,42.75
2017-06-25T08:40:11.829Z,42.65
2017-06-25T08:40:52.351Z,43.04
2017-06-25T08:41:32.892Z,42.75
2017-06-25T08:42:13.300Z,43.04
2017-06-25T08:42:53.773Z,42.85
2017-06-25T08:43:34.218Z,42.75
2017-06-25T08:44:14.654Z,42.55
2017-06-25T08:44:55.113Z,42.55
2017-06-25T08:45:35.572Z,42.36
2017-06-25T08:46:16.021Z,42.17
2017-06-25T08:46:56.491Z,42.46
2017-06-25T08:47:36.949Z,42.75
2017-06-25T08:48:17.403Z,42.75